| time (UTC) | temp F | wind direction | speed MPH | gust MPH | rain 1hr in | rain 24hr in | rain mn in | humidity % | barometer mb |
| 20260903184606 | 71 | 227 | 14.0 | 26.0 | 0.00 | 0.43 | 0.01 | 56 | 1002.2 |
| 20260903183106 | 71 | 196 | 19.0 | 27.0 | 0.00 | 0.43 | 0.01 | 55 | 1002.1 |
| 20260903181609 | 70 | 215 | 17.0 | 24.0 | 0.00 | 0.43 | 0.01 | 56 | 1002.2 |
| 20260903180107 | 69 | 195 | 18.0 | 31.0 | 0.00 | 0.43 | 0.01 | 57 | 1002.2 |
| 20260903174608 | 69 | 206 | 16.0 | 26.0 | 0.00 | 0.43 | 0.01 | 56 | 1002.3 |
| 20260903173109 | 69 | 195 | 15.0 | 28.0 | 0.00 | 0.43 | 0.01 | 56 | 1002.4 |
| 20260903171616 | 69 | 191 | 14.0 | 26.0 | 0.00 | 0.43 | 0.01 | 58 | 1002.3 |
| 20260903170106 | 68 | 155 | 18.0 | 28.0 | 0.00 | 0.43 | 0.01 | 61 | 1002.3 |
| 20260903164642 | 67 | 167 | 16.0 | 25.0 | 0.00 | 0.43 | 0.01 | 61 | 1002.3 |
| 20260903163106 | 66 | 187 | 18.0 | 27.0 | 0.00 | 0.43 | 0.01 | 63 | 1002.3 |
| 20260903161607 | 66 | 174 | 18.0 | 28.0 | 0.00 | 0.43 | 0.01 | 67 | 1002.3 |
| 20260903160107 | 65 | 193 | 15.0 | 23.0 | 0.00 | 0.43 | 0.01 | 70 | 1002.3 |
| 20260903154606 | 63 | 202 | 16.0 | 22.0 | 0.00 | 0.43 | 0.01 | 73 | 1002.3 |
| 20260903153108 | 62 | 203 | 12.0 | 20.0 | 0.00 | 0.43 | 0.01 | 75 | 1002.4 |
| 20260903151608 | 60 | 206 | 11.0 | 23.0 | 0.00 | 0.43 | 0.01 | 79 | 1002.3 |
| 20260903150108 | 58 | 213 | 12.0 | 19.0 | 0.00 | 0.43 | 0.01 | 82 | 1002.3 |
| 20260903144614 | 57 | 183 | 12.0 | 20.0 | 0.00 | 0.43 | 0.01 | 84 | 1002.3 |
| 20260903143106 | 56 | 201 | 14.0 | 21.0 | 0.00 | 0.43 | 0.01 | 85 | 1002.3 |
| 20260903141606 | 56 | 206 | 14.0 | 20.0 | 0.00 | 0.43 | 0.01 | 87 | 1002.3 |
| 20260903140108 | 56 | 205 | 13.0 | 21.0 | 0.00 | 0.43 | 0.01 | 87 | 1002.4 |
| 20260903134620 | 55 | 199 | 13.0 | 20.0 | 0.00 | 0.43 | 0.01 | 88 | 1002.4 |
| 20260903133106 | 55 | 194 | 12.0 | 18.0 | 0.00 | 0.43 | 0.01 | 90 | 1002.2 |
| 20260903131608 | 55 | 201 | 10.0 | 17.0 | 0.00 | 0.43 | 0.01 | 91 | 1002.0 |
| 20260903130112 | 56 | 189 | 12.0 | 17.0 | 0.00 | 0.43 | 0.01 | 91 | 1001.8 |
| 20260903124622 | 56 | 214 | 10.0 | 16.0 | 0.00 | 0.43 | 0.01 | 91 | 1001.6 |
| 20260903123108 | 57 | 193 | 12.0 | 21.0 | 0.00 | 0.43 | 0.01 | 91 | 1001.6 |
| 20260903121615 | 58 | 200 | 13.0 | 21.0 | 0.00 | 0.43 | 0.01 | 92 | 1001.4 |
| 20260903120115 | 58 | 175 | 15.0 | 23.0 | 0.00 | 0.43 | 0.01 | 93 | 1001.4 |
| 20260903114605 | 59 | 175 | 18.0 | 27.0 | 0.00 | 0.43 | 0.01 | 94 | 1001.6 |
| 20260903113147 | 59 | 180 | 16.0 | 26.0 | 0.00 | 0.43 | 0.01 | 94 | 1001.7 |
| 20260903111606 | 59 | 176 | 14.0 | 24.0 | 0.00 | 0.43 | 0.01 | 95 | 1001.7 |
| 20260903110109 | 59 | 139 | 14.0 | 27.0 | 0.00 | 0.43 | 0.01 | 95 | 1001.7 |
| 20260903104612 | 59 | 154 | 13.0 | 24.0 | 0.00 | 0.43 | 0.01 | 95 | 1001.9 |
| 20260903103109 | 59 | 165 | 12.0 | 21.0 | 0.00 | 0.43 | 0.01 | 96 | 1002.1 |
| 20260903101617 | 59 | 162 | 15.0 | 21.0 | 0.00 | 0.43 | 0.01 | 96 | 1002.2 |
| 20260903100106 | 59 | 162 | 15.0 | 24.0 | 0.00 | 0.43 | 0.01 | 96 | 1002.3 |
| 20260903094609 | 58 | 145 | 13.0 | 20.0 | 0.00 | 0.43 | 0.01 | 96 | 1002.3 |
| 20260903093108 | 58 | 130 | 12.0 | 20.0 | 0.00 | 0.43 | 0.01 | 95 | 1002.2 |
| 20260903091605 | 58 | 138 | 8.0 | 13.0 | 0.00 | 0.43 | 0.01 | 95 | 1002.4 |
| 20260903090106 | 58 | 135 | 9.0 | 19.0 | 0.00 | 0.43 | 0.01 | 95 | 1002.6 |
| 20260903084610 | 58 | 102 | 6.0 | 12.0 | 0.00 | 0.43 | 0.01 | 95 | 1002.7 |
| 20260903083103 | 58 | 125 | 6.0 | 12.0 | 0.00 | 0.43 | 0.01 | 95 | 1002.4 |
| 20260903081605 | 58 | 117 | 6.0 | 12.0 | 0.00 | 0.43 | 0.01 | 95 | 1002.6 |
| 20260903080105 | 59 | 133 | 5.0 | 9.0 | 0.00 | 0.43 | 0.01 | 95 | 1003.2 |
| 20260903074605 | 59 | 110 | 3.0 | 9.0 | 0.00 | 0.43 | 0.01 | 95 | 1003.3 |
| 20260903073111 | 60 | 96 | 5.0 | 8.0 | 0.00 | 0.43 | 0.01 | 95 | 1002.9 |
| 20260903071614 | 60 | 56 | 4.0 | 8.0 | 0.00 | 0.43 | 0.01 | 95 | 1002.8 |
| 20260903070106 | 60 | 102 | 3.0 | 9.0 | 0.01 | 0.43 | 0.01 | 94 | 1002.9 |
| 20260903064606 | 60 | 77 | 6.0 | 9.0 | 0.01 | 0.43 | 0.01 | 95 | 1003.3 |
| 20260903063104 | 61 | 19 | 5.0 | 9.0 | 0.01 | 0.43 | 0.01 | 95 | 1003.7 |
| 20260903061607 | 61 | 359 | 2.0 | 12.0 | 0.01 | 0.43 | 0.01 | 95 | 1004.4 |
| 20260903060108 | 61 | 140 | 10.0 | 18.0 | 0.00 | 0.42 | 0.00 | 94 | 1004.1 |
| 20260903054607 | 61 | 146 | 7.0 | 13.0 | 0.02 | 0.42 | 0.42 | 94 | 1004.2 |
| 20260903053109 | 61 | 116 | 9.0 | 16.0 | 0.06 | 0.42 | 0.42 | 94 | 1003.6 |
| 20260903051617 | 61 | 149 | 11.0 | 24.0 | 0.11 | 0.42 | 0.42 | 94 | 1003.2 |
| 20260903050115 | 61 | 121 | 12.0 | 19.0 | 0.17 | 0.42 | 0.42 | 94 | 1003.7 |
| 20260903044606 | 62 | 108 | 9.0 | 14.0 | 0.19 | 0.40 | 0.40 | 93 | 1004.2 |
| 20260903043209 | 62 | 133 | 7.0 | 12.0 | 0.17 | 0.36 | 0.36 | 93 | 1005.4 |
| 20260903041609 | 62 | 152 | 6.0 | 11.0 | 0.15 | 0.31 | 0.31 | 93 | 1006.2 |
| 20260903040111 | 62 | 158 | 3.0 | 9.0 | 0.13 | 0.25 | 0.25 | 93 | 1006.1 |
| 20260903034606 | 62 | 95 | 4.0 | 12.0 | 0.10 | 0.21 | 0.21 | 93 | 1005.5 |
| 20260903033105 | 62 | 99 | 11.0 | 17.0 | 0.09 | 0.19 | 0.19 | 92 | 1005.5 |
| 20260903031606 | 62 | 125 | 14.0 | 19.0 | 0.07 | 0.16 | 0.16 | 91 | 1005.4 |
| 20260903030107 | 62 | 121 | 13.0 | 21.0 | 0.12 | 0.12 | 0.12 | 91 | 1005.0 |
| 20260903024608 | 63 | 123 | 15.0 | 26.0 | 0.11 | 0.11 | 0.11 | 89 | 1004.2 |
| 20260903023105 | 63 | 121 | 15.0 | 26.0 | 0.10 | 0.10 | 0.10 | 87 | 1004.0 |
| 20260903021608 | 65 | 114 | 18.0 | 33.0 | 0.09 | 0.09 | 0.09 | 83 | 1005.0 |
| 20260903020107 | 67 | 160 | 15.0 | 25.0 | 0.00 | 0.00 | 0.00 | 76 | 1005.5 |
| 20260903014604 | 68 | 135 | 14.0 | 20.0 | 0.00 | 0.00 | 0.00 | 72 | 1004.1 |
| 20260903013111 | 68 | 116 | 12.0 | 18.0 | 0.00 | 0.00 | 0.00 | 70 | 1004.2 |
| 20260903011608 | 69 | 120 | 9.0 | 13.0 | 0.00 | 0.00 | 0.00 | 69 | 1004.6 |
| 20260903010106 | 71 | 116 | 8.0 | 16.0 | 0.00 | 0.00 | 0.00 | 67 | 1004.7 |
| 20260903004608 | 72 | 131 | 11.0 | 18.0 | 0.00 | 0.00 | 0.00 | 64 | 1004.8 |
| 20260903003105 | 73 | 95 | 12.0 | 20.0 | 0.00 | 0.00 | 0.00 | 64 | 1004.9 |
| 20260903001608 | 72 | 108 | 10.0 | 15.0 | 0.00 | 0.00 | 0.00 | 67 | 1005.0 |
| 20260903000112 | 71 | 104 | 9.0 | 16.0 | 0.00 | 0.00 | 0.00 | 66 | 1005.2 |
| 20260902234618 | 72 | 134 | 9.0 | 14.0 | 0.00 | 0.00 | 0.00 | 69 | 1005.3 |
| 20260902233109 | 71 | 97 | 11.0 | 17.0 | 0.00 | 0.00 | 0.00 | 69 | 1005.1 |
| 20260902231624 | 70 | 109 | 9.0 | 14.0 | 0.00 | 0.00 | 0.00 | 71 | 1005.3 |
| 20260902230108 | 70 | 127 | 9.0 | 14.0 | 0.00 | 0.00 | 0.00 | 69 | 1005.5 |
| 20260902224613 | 71 | 137 | 9.0 | 13.0 | 0.00 | 0.00 | 0.00 | 68 | 1005.6 |
| 20260902223108 | 72 | 109 | 9.0 | 17.0 | 0.00 | 0.00 | 0.00 | 65 | 1005.8 |
| 20260902221609 | 73 | 146 | 12.0 | 23.0 | 0.00 | 0.00 | 0.00 | 61 | 1005.7 |
| 20260902220111 | 74 | 155 | 13.0 | 20.0 | 0.00 | 0.00 | 0.00 | 60 | 1005.9 |
| 20260902214604 | 75 | 135 | 16.0 | 25.0 | 0.00 | 0.00 | 0.00 | 59 | 1006.0 |
| 20260902213132 | 75 | 124 | 15.0 | 25.0 | 0.00 | 0.00 | 0.00 | 58 | 1006.0 |
| 20260902211610 | 76 | 142 | 12.0 | 26.0 | 0.00 | 0.00 | 0.00 | 57 | 1006.1 |
| 20260902210106 | 77 | 136 | 15.0 | 28.0 | 0.00 | 0.00 | 0.00 | 55 | 1006.0 |
| 20260902204608 | 76 | 165 | 18.0 | 29.0 | 0.00 | 0.00 | 0.00 | 55 | 1005.9 |
| 20260902203109 | 76 | 143 | 19.0 | 30.0 | 0.00 | 0.00 | 0.00 | 59 | 1005.9 |
| 20260902201608 | 74 | 98 | 15.0 | 25.0 | 0.00 | 0.00 | 0.00 | 60 | 1006.0 |
| 20260902200136 | 74 | 148 | 16.0 | 25.0 | 0.00 | 0.00 | 0.00 | 59 | 1006.0 |
| 20260902194611 | 74 | 127 | 10.0 | 17.0 | 0.00 | 0.00 | 0.00 | 57 | 1006.5 |
| 20260902193108 | 74 | 125 | 9.0 | 19.0 | 0.00 | 0.00 | 0.00 | 57 | 1006.8 |
| 20260902191614 | 75 | 95 | 14.0 | 24.0 | 0.00 | 0.00 | 0.00 | 53 | 1006.9 |
| 20260902190116 | 76 | 112 | 15.0 | 25.0 | 0.00 | 0.00 | 0.00 | 52 | 1006.8 |